sensor_id;sensor_type;location;lat;lon;timestamp;P1;durP1;ratioP1;P2;durP2;ratioP2
84334;SDS011;74512;51.190;3.198;2023-12-14T00:01:59;12.77;;;6.25;;
84334;SDS011;74512;51.190;3.198;2023-12-14T00:04:25;10.55;;;5.38;;
84334;SDS011;74512;51.190;3.198;2023-12-14T00:06:51;13.15;;;4.97;;
84334;SDS011;74512;51.190;3.198;2023-12-14T00:09:16;9.23;;;4.82;;
84334;SDS011;74512;51.190;3.198;2023-12-14T00:11:42;12.10;;;5.78;;
84334;SDS011;74512;51.190;3.198;2023-12-14T00:14:07;13.95;;;5.78;;
84334;SDS011;74512;51.190;3.198;2023-12-14T00:16:33;10.25;;;5.85;;
84334;SDS011;74512;51.190;3.198;2023-12-14T00:18:59;11.45;;;5.57;;
84334;SDS011;74512;51.190;3.198;2023-12-14T00:21:24;7.80;;;4.75;;
84334;SDS011;74512;51.190;3.198;2023-12-14T00:23:50;9.88;;;5.47;;
84334;SDS011;74512;51.190;3.198;2023-12-14T00:26:15;8.07;;;4.70;;
84334;SDS011;74512;51.190;3.198;2023-12-14T00:28:42;7.63;;;3.70;;
84334;SDS011;74512;51.190;3.198;2023-12-14T00:31:08;8.00;;;4.78;;
84334;SDS011;74512;51.190;3.198;2023-12-14T00:33:34;9.77;;;4.10;;
84334;SDS011;74512;51.190;3.198;2023-12-14T00:35:59;10.00;;;4.47;;
84334;SDS011;74512;51.190;3.198;2023-12-14T00:38:25;11.45;;;4.05;;
84334;SDS011;74512;51.190;3.198;2023-12-14T00:40:50;9.38;;;3.20;;
84334;SDS011;74512;51.190;3.198;2023-12-14T00:43:16;6.43;;;3.67;;
84334;SDS011;74512;51.190;3.198;2023-12-14T00:45:42;8.18;;;3.28;;
84334;SDS011;74512;51.190;3.198;2023-12-14T00:48:07;8.13;;;2.70;;
84334;SDS011;74512;51.190;3.198;2023-12-14T00:50:33;8.30;;;2.65;;
84334;SDS011;74512;51.190;3.198;2023-12-14T00:52:59;10.32;;;2.92;;
84334;SDS011;74512;51.190;3.198;2023-12-14T00:55:24;5.32;;;3.08;;
84334;SDS011;74512;51.190;3.198;2023-12-14T00:57:50;4.78;;;1.92;;
84334;SDS011;74512;51.190;3.198;2023-12-14T01:00:16;6.03;;;2.50;;
84334;SDS011;74512;51.190;3.198;2023-12-14T01:02:42;7.22;;;3.20;;
84334;SDS011;74512;51.190;3.198;2023-12-14T01:05:07;7.72;;;2.78;;
84334;SDS011;74512;51.190;3.198;2023-12-14T01:07:33;4.85;;;2.38;;
84334;SDS011;74512;51.190;3.198;2023-12-14T01:09:59;5.65;;;2.22;;
84334;SDS011;74512;51.190;3.198;2023-12-14T01:12:24;7.28;;;2.25;;
84334;SDS011;74512;51.190;3.198;2023-12-14T01:14:50;6.70;;;1.80;;
84334;SDS011;74512;51.190;3.198;2023-12-14T01:17:16;7.20;;;2.10;;
84334;SDS011;74512;51.190;3.198;2023-12-14T01:19:41;4.88;;;2.00;;
84334;SDS011;74512;51.190;3.198;2023-12-14T01:22:07;6.82;;;2.92;;
84334;SDS011;74512;51.190;3.198;2023-12-14T01:24:33;8.20;;;2.15;;
84334;SDS011;74512;51.190;3.198;2023-12-14T01:26:58;7.22;;;1.83;;
84334;SDS011;74512;51.190;3.198;2023-12-14T01:29:24;5.13;;;2.28;;
84334;SDS011;74512;51.190;3.198;2023-12-14T01:31:49;5.07;;;1.90;;
84334;SDS011;74512;51.190;3.198;2023-12-14T01:34:15;4.30;;;2.10;;
84334;SDS011;74512;51.190;3.198;2023-12-14T01:36:41;3.70;;;2.15;;
84334;SDS011;74512;51.190;3.198;2023-12-14T01:39:06;5.93;;;1.88;;
84334;SDS011;74512;51.190;3.198;2023-12-14T01:41:32;3.55;;;1.63;;
84334;SDS011;74512;51.190;3.198;2023-12-14T01:43:58;7.88;;;2.15;;
84334;SDS011;74512;51.190;3.198;2023-12-14T01:46:24;4.30;;;1.90;;
84334;SDS011;74512;51.190;3.198;2023-12-14T01:48:49;7.45;;;1.60;;
84334;SDS011;74512;51.190;3.198;2023-12-14T01:51:17;10.25;;;2.30;;
84334;SDS011;74512;51.190;3.198;2023-12-14T01:53:43;4.15;;;1.88;;
84334;SDS011;74512;51.190;3.198;2023-12-14T01:56:08;8.93;;;1.80;;
84334;SDS011;74512;51.190;3.198;2023-12-14T01:58:34;7.47;;;2.00;;
84334;SDS011;74512;51.190;3.198;2023-12-14T02:03:54;5.57;;;1.60;;
84334;SDS011;74512;51.190;3.198;2023-12-14T02:06:20;5.22;;;1.60;;
84334;SDS011;74512;51.190;3.198;2023-12-14T02:08:45;10.75;;;2.53;;
84334;SDS011;74512;51.190;3.198;2023-12-14T02:11:11;3.95;;;1.55;;
84334;SDS011;74512;51.190;3.198;2023-12-14T02:13:37;2.65;;;1.17;;
84334;SDS011;74512;51.190;3.198;2023-12-14T02:16:03;8.90;;;2.30;;
84334;SDS011;74512;51.190;3.198;2023-12-14T02:18:29;11.13;;;2.35;;
84334;SDS011;74512;51.190;3.198;2023-12-14T02:20:55;5.43;;;1.77;;
84334;SDS011;74512;51.190;3.198;2023-12-14T02:23:20;5.22;;;1.50;;
84334;SDS011;74512;51.190;3.198;2023-12-14T02:25:46;8.02;;;2.13;;
84334;SDS011;74512;51.190;3.198;2023-12-14T02:28:12;2.40;;;1.55;;
84334;SDS011;74512;51.190;3.198;2023-12-14T02:30:38;6.47;;;2.15;;
84334;SDS011;74512;51.190;3.198;2023-12-14T02:33:03;5.32;;;1.50;;
84334;SDS011;74512;51.190;3.198;2023-12-14T02:35:29;6.25;;;1.98;;
84334;SDS011;74512;51.190;3.198;2023-12-14T02:37:54;8.18;;;2.30;;
84334;SDS011;74512;51.190;3.198;2023-12-14T02:40:20;11.20;;;2.95;;
84334;SDS011;74512;51.190;3.198;2023-12-14T02:42:46;9.60;;;2.47;;
84334;SDS011;74512;51.190;3.198;2023-12-14T02:45:11;4.38;;;1.73;;
84334;SDS011;74512;51.190;3.198;2023-12-14T02:47:37;3.90;;;1.60;;
84334;SDS011;74512;51.190;3.198;2023-12-14T02:50:03;6.32;;;2.17;;
84334;SDS011;74512;51.190;3.198;2023-12-14T02:52:29;9.35;;;2.83;;
84334;SDS011;74512;51.190;3.198;2023-12-14T02:54:54;8.88;;;2.97;;
84334;SDS011;74512;51.190;3.198;2023-12-14T02:57:20;6.07;;;1.98;;
84334;SDS011;74512;51.190;3.198;2023-12-14T02:59:46;9.63;;;2.78;;
84334;SDS011;74512;51.190;3.198;2023-12-14T03:02:11;6.43;;;2.10;;
84334;SDS011;74512;51.190;3.198;2023-12-14T03:04:37;6.50;;;2.33;;
84334;SDS011;74512;51.190;3.198;2023-12-14T03:07:06;6.53;;;2.65;;
84334;SDS011;74512;51.190;3.198;2023-12-14T03:09:32;9.52;;;2.30;;
84334;SDS011;74512;51.190;3.198;2023-12-14T03:11:59;8.75;;;2.72;;
84334;SDS011;74512;51.190;3.198;2023-12-14T03:14:25;6.55;;;2.78;;
84334;SDS011;74512;51.190;3.198;2023-12-14T03:16:51;13.55;;;3.83;;
84334;SDS011;74512;51.190;3.198;2023-12-14T03:19:17;6.10;;;1.90;;
84334;SDS011;74512;51.190;3.198;2023-12-14T03:21:43;9.07;;;3.80;;
84334;SDS011;74512;51.190;3.198;2023-12-14T03:24:08;6.07;;;2.80;;
84334;SDS011;74512;51.190;3.198;2023-12-14T03:26:34;10.68;;;3.25;;
84334;SDS011;74512;51.190;3.198;2023-12-14T03:29:00;5.65;;;2.47;;
84334;SDS011;74512;51.190;3.198;2023-12-14T03:31:26;5.03;;;2.05;;
84334;SDS011;74512;51.190;3.198;2023-12-14T03:33:51;7.15;;;2.97;;
84334;SDS011;74512;51.190;3.198;2023-12-14T03:36:17;10.05;;;2.58;;
84334;SDS011;74512;51.190;3.198;2023-12-14T03:38:43;9.60;;;2.83;;
84334;SDS011;74512;51.190;3.198;2023-12-14T03:41:08;8.85;;;3.25;;
84334;SDS011;74512;51.190;3.198;2023-12-14T03:43:34;6.20;;;2.03;;
84334;SDS011;74512;51.190;3.198;2023-12-14T03:46:00;7.10;;;2.85;;
84334;SDS011;74512;51.190;3.198;2023-12-14T03:48:25;9.05;;;2.50;;
84334;SDS011;74512;51.190;3.198;2023-12-14T03:50:51;9.27;;;3.10;;
84334;SDS011;74512;51.190;3.198;2023-12-14T03:53:16;8.60;;;2.20;;
84334;SDS011;74512;51.190;3.198;2023-12-14T03:55:42;8.40;;;2.13;;
84334;SDS011;74512;51.190;3.198;2023-12-14T03:58:08;11.93;;;2.35;;
84334;SDS011;74512;51.190;3.198;2023-12-14T04:00:33;4.88;;;1.92;;
84334;SDS011;74512;51.190;3.198;2023-12-14T04:02:59;7.75;;;1.80;;
84334;SDS011;74512;51.190;3.198;2023-12-14T04:05:25;9.18;;;2.00;;
84334;SDS011;74512;51.190;3.198;2023-12-14T04:07:50;4.30;;;1.75;;
84334;SDS011;74512;51.190;3.198;2023-12-14T04:10:16;4.93;;;2.00;;
84334;SDS011;74512;51.190;3.198;2023-12-14T04:12:42;6.10;;;1.90;;
84334;SDS011;74512;51.190;3.198;2023-12-14T04:15:08;9.13;;;2.47;;
84334;SDS011;74512;51.190;3.198;2023-12-14T04:17:35;3.67;;;1.90;;
84334;SDS011;74512;51.190;3.198;2023-12-14T04:20:01;5.78;;;2.13;;
84334;SDS011;74512;51.190;3.198;2023-12-14T04:22:28;2.97;;;1.55;;
84334;SDS011;74512;51.190;3.198;2023-12-14T04:24:54;5.28;;;1.67;;
84334;SDS011;74512;51.190;3.198;2023-12-14T04:27:20;5.47;;;1.92;;
84334;SDS011;74512;51.190;3.198;2023-12-14T04:29:45;7.43;;;1.75;;
84334;SDS011;74512;51.190;3.198;2023-12-14T04:32:11;6.50;;;1.67;;
84334;SDS011;74512;51.190;3.198;2023-12-14T04:34:37;4.65;;;1.70;;
84334;SDS011;74512;51.190;3.198;2023-12-14T04:37:03;6.43;;;1.70;;
84334;SDS011;74512;51.190;3.198;2023-12-14T04:39:28;3.50;;;1.50;;
84334;SDS011;74512;51.190;3.198;2023-12-14T04:41:54;4.30;;;1.63;;
84334;SDS011;74512;51.190;3.198;2023-12-14T04:44:20;2.42;;;1.35;;
84334;SDS011;74512;51.190;3.198;2023-12-14T04:46:49;3.72;;;1.70;;
84334;SDS011;74512;51.190;3.198;2023-12-14T04:49:15;2.95;;;1.63;;
84334;SDS011;74512;51.190;3.198;2023-12-14T04:51:41;1.92;;;1.50;;
84334;SDS011;74512;51.190;3.198;2023-12-14T04:54:07;3.47;;;1.70;;
84334;SDS011;74512;51.190;3.198;2023-12-14T04:56:33;2.67;;;1.60;;
84334;SDS011;74512;51.190;3.198;2023-12-14T04:58:59;5.40;;;1.80;;
84334;SDS011;74512;51.190;3.198;2023-12-14T05:01:25;2.60;;;1.63;;
84334;SDS011;74512;51.190;3.198;2023-12-14T05:03:54;2.25;;;1.30;;
84334;SDS011;74512;51.190;3.198;2023-12-14T05:06:20;3.85;;;1.92;;
84334;SDS011;74512;51.190;3.198;2023-12-14T05:08:46;6.45;;;1.63;;
84334;SDS011;74512;51.190;3.198;2023-12-14T05:11:12;3.42;;;1.58;;
84334;SDS011;74512;51.190;3.198;2023-12-14T05:13:38;3.17;;;1.70;;
84334;SDS011;74512;51.190;3.198;2023-12-14T05:16:04;7.50;;;1.98;;
84334;SDS011;74512;51.190;3.198;2023-12-14T05:18:30;5.25;;;1.75;;
84334;SDS011;74512;51.190;3.198;2023-12-14T05:20:56;7.03;;;2.25;;
84334;SDS011;74512;51.190;3.198;2023-12-14T05:23:21;6.35;;;2.00;;
84334;SDS011;74512;51.190;3.198;2023-12-14T05:25:48;8.40;;;2.65;;
84334;SDS011;74512;51.190;3.198;2023-12-14T05:28:14;6.07;;;2.45;;
84334;SDS011;74512;51.190;3.198;2023-12-14T05:30:40;12.20;;;2.22;;
84334;SDS011;74512;51.190;3.198;2023-12-14T05:33:06;6.63;;;2.25;;
84334;SDS011;74512;51.190;3.198;2023-12-14T05:35:32;9.13;;;2.40;;
84334;SDS011;74512;51.190;3.198;2023-12-14T05:37:58;3.22;;;1.48;;
84334;SDS011;74512;51.190;3.198;2023-12-14T05:40:23;8.43;;;2.20;;
84334;SDS011;74512;51.190;3.198;2023-12-14T05:42:49;5.35;;;2.35;;
84334;SDS011;74512;51.190;3.198;2023-12-14T05:45:15;5.25;;;1.77;;
84334;SDS011;74512;51.190;3.198;2023-12-14T05:47:41;4.10;;;1.80;;
84334;SDS011;74512;51.190;3.198;2023-12-14T05:50:07;3.50;;;1.45;;
84334;SDS011;74512;51.190;3.198;2023-12-14T05:52:35;2.95;;;1.48;;
84334;SDS011;74512;51.190;3.198;2023-12-14T05:55:00;7.85;;;2.30;;
84334;SDS011;74512;51.190;3.198;2023-12-14T05:57:26;6.68;;;2.03;;
84334;SDS011;74512;51.190;3.198;2023-12-14T05:59:52;2.70;;;1.40;;
84334;SDS011;74512;51.190;3.198;2023-12-14T06:02:17;3.50;;;1.55;;
84334;SDS011;74512;51.190;3.198;2023-12-14T06:04:43;6.93;;;1.92;;
84334;SDS011;74512;51.190;3.198;2023-12-14T06:07:09;4.32;;;1.80;;
84334;SDS011;74512;51.190;3.198;2023-12-14T06:09:34;4.20;;;2.03;;
84334;SDS011;74512;51.190;3.198;2023-12-14T06:12:00;7.20;;;2.92;;
84334;SDS011;74512;51.190;3.198;2023-12-14T06:14:27;7.25;;;1.88;;
84334;SDS011;74512;51.190;3.198;2023-12-14T06:16:53;4.88;;;2.00;;
84334;SDS011;74512;51.190;3.198;2023-12-14T06:19:18;3.97;;;1.88;;
84334;SDS011;74512;51.190;3.198;2023-12-14T06:21:44;3.50;;;1.80;;
84334;SDS011;74512;51.190;3.198;2023-12-14T06:24:10;3.80;;;2.17;;
84334;SDS011;74512;51.190;3.198;2023-12-14T06:26:40;11.45;;;3.60;;
84334;SDS011;74512;51.190;3.198;2023-12-14T06:29:08;3.35;;;1.65;;
84334;SDS011;74512;51.190;3.198;2023-12-14T06:31:33;11.15;;;3.75;;
84334;SDS011;74512;51.190;3.198;2023-12-14T06:33:59;8.88;;;3.25;;
84334;SDS011;74512;51.190;3.198;2023-12-14T06:36:28;10.13;;;3.53;;
84334;SDS011;74512;51.190;3.198;2023-12-14T06:38:54;10.30;;;3.47;;
84334;SDS011;74512;51.190;3.198;2023-12-14T06:41:21;11.90;;;4.75;;
84334;SDS011;74512;51.190;3.198;2023-12-14T06:43:47;10.23;;;3.83;;
84334;SDS011;74512;51.190;3.198;2023-12-14T06:46:13;13.57;;;4.43;;
84334;SDS011;74512;51.190;3.198;2023-12-14T06:48:39;9.80;;;4.30;;
84334;SDS011;74512;51.190;3.198;2023-12-14T06:51:05;10.60;;;4.25;;
84334;SDS011;74512;51.190;3.198;2023-12-14T06:53:31;7.18;;;3.45;;
84334;SDS011;74512;51.190;3.198;2023-12-14T06:55:56;5.15;;;2.22;;
84334;SDS011;74512;51.190;3.198;2023-12-14T06:58:22;10.70;;;4.03;;
84334;SDS011;74512;51.190;3.198;2023-12-14T07:00:47;3.28;;;2.20;;
84334;SDS011;74512;51.190;3.198;2023-12-14T07:03:13;12.25;;;3.90;;
84334;SDS011;74512;51.190;3.198;2023-12-14T07:05:39;9.77;;;3.55;;
84334;SDS011;74512;51.190;3.198;2023-12-14T07:08:05;3.45;;;2.17;;
84334;SDS011;74512;51.190;3.198;2023-12-14T07:10:30;9.23;;;4.38;;
84334;SDS011;74512;51.190;3.198;2023-12-14T07:12:56;4.55;;;2.65;;
84334;SDS011;74512;51.190;3.198;2023-12-14T07:15:22;9.65;;;4.50;;
84334;SDS011;74512;51.190;3.198;2023-12-14T07:17:49;6.55;;;2.60;;
84334;SDS011;74512;51.190;3.198;2023-12-14T07:20:14;6.03;;;2.25;;
84334;SDS011;74512;51.190;3.198;2023-12-14T07:22:40;9.30;;;3.67;;
84334;SDS011;74512;51.190;3.198;2023-12-14T07:25:06;7.85;;;3.08;;
84334;SDS011;74512;51.190;3.198;2023-12-14T07:27:32;12.10;;;4.45;;
84334;SDS011;74512;51.190;3.198;2023-12-14T07:29:58;9.30;;;3.85;;
84334;SDS011;74512;51.190;3.198;2023-12-14T07:32:24;13.07;;;4.70;;
84334;SDS011;74512;51.190;3.198;2023-12-14T07:34:49;11.35;;;5.13;;
84334;SDS011;74512;51.190;3.198;2023-12-14T07:37:15;16.77;;;5.20;;
84334;SDS011;74512;51.190;3.198;2023-12-14T07:39:41;11.48;;;4.65;;
84334;SDS011;74512;51.190;3.198;2023-12-14T07:42:06;15.65;;;5.50;;
84334;SDS011;74512;51.190;3.198;2023-12-14T07:44:32;14.25;;;4.88;;
84334;SDS011;74512;51.190;3.198;2023-12-14T07:46:59;14.05;;;4.95;;
84334;SDS011;74512;51.190;3.198;2023-12-14T07:49:25;16.45;;;5.82;;
84334;SDS011;74512;51.190;3.198;2023-12-14T07:51:51;15.45;;;5.97;;
84334;SDS011;74512;51.190;3.198;2023-12-14T07:54:17;11.93;;;5.70;;
84334;SDS011;74512;51.190;3.198;2023-12-14T07:56:43;13.90;;;4.68;;
84334;SDS011;74512;51.190;3.198;2023-12-14T07:59:09;11.50;;;4.80;;
84334;SDS011;74512;51.190;3.198;2023-12-14T08:01:35;12.23;;;4.80;;
84334;SDS011;74512;51.190;3.198;2023-12-14T08:04:02;5.32;;;2.50;;
84334;SDS011;74512;51.190;3.198;2023-12-14T08:06:28;8.80;;;3.17;;
84334;SDS011;74512;51.190;3.198;2023-12-14T08:08:55;8.50;;;3.00;;
84334;SDS011;74512;51.190;3.198;2023-12-14T08:11:23;6.80;;;2.63;;
84334;SDS011;74512;51.190;3.198;2023-12-14T08:13:49;5.50;;;2.65;;
84334;SDS011;74512;51.190;3.198;2023-12-14T08:16:14;6.93;;;3.30;;
84334;SDS011;74512;51.190;3.198;2023-12-14T08:18:42;6.07;;;2.80;;
84334;SDS011;74512;51.190;3.198;2023-12-14T08:21:11;3.78;;;2.70;;
84334;SDS011;74512;51.190;3.198;2023-12-14T08:23:36;7.68;;;3.53;;
84334;SDS011;74512;51.190;3.198;2023-12-14T08:26:02;9.50;;;2.78;;
84334;SDS011;74512;51.190;3.198;2023-12-14T08:28:28;11.65;;;4.80;;
84334;SDS011;74512;51.190;3.198;2023-12-14T08:30:54;7.40;;;2.70;;
84334;SDS011;74512;51.190;3.198;2023-12-14T08:33:22;9.25;;;4.35;;
84334;SDS011;74512;51.190;3.198;2023-12-14T08:35:48;6.32;;;3.00;;
84334;SDS011;74512;51.190;3.198;2023-12-14T08:38:15;5.45;;;2.80;;
84334;SDS011;74512;51.190;3.198;2023-12-14T08:40:41;10.40;;;4.45;;
84334;SDS011;74512;51.190;3.198;2023-12-14T08:43:07;5.18;;;3.03;;
84334;SDS011;74512;51.190;3.198;2023-12-14T08:45:33;4.50;;;2.75;;
84334;SDS011;74512;51.190;3.198;2023-12-14T08:47:59;11.73;;;5.57;;
84334;SDS011;74512;51.190;3.198;2023-12-14T08:50:24;6.70;;;3.08;;
84334;SDS011;74512;51.190;3.198;2023-12-14T08:52:53;7.13;;;3.15;;
84334;SDS011;74512;51.190;3.198;2023-12-14T08:55:18;4.72;;;2.80;;
84334;SDS011;74512;51.190;3.198;2023-12-14T08:57:44;7.93;;;4.45;;
84334;SDS011;74512;51.190;3.198;2023-12-14T09:00:10;6.25;;;3.15;;
84334;SDS011;74512;51.190;3.198;2023-12-14T09:02:36;7.40;;;3.97;;
84334;SDS011;74512;51.190;3.198;2023-12-14T09:05:02;10.35;;;3.65;;
84334;SDS011;74512;51.190;3.198;2023-12-14T09:07:29;10.52;;;4.03;;
84334;SDS011;74512;51.190;3.198;2023-12-14T09:09:55;7.63;;;3.53;;
84334;SDS011;74512;51.190;3.198;2023-12-14T09:12:21;5.18;;;2.53;;
84334;SDS011;74512;51.190;3.198;2023-12-14T09:14:47;6.45;;;2.88;;
84334;SDS011;74512;51.190;3.198;2023-12-14T09:17:12;4.60;;;2.35;;
84334;SDS011;74512;51.190;3.198;2023-12-14T09:19:38;10.20;;;2.72;;
84334;SDS011;74512;51.190;3.198;2023-12-14T09:22:04;5.10;;;2.33;;
84334;SDS011;74512;51.190;3.198;2023-12-14T09:24:29;6.03;;;2.78;;
84334;SDS011;74512;51.190;3.198;2023-12-14T09:26:55;9.57;;;4.05;;
84334;SDS011;74512;51.190;3.198;2023-12-14T09:29:21;6.90;;;2.50;;
84334;SDS011;74512;51.190;3.198;2023-12-14T09:31:46;6.28;;;2.55;;
84334;SDS011;74512;51.190;3.198;2023-12-14T09:34:12;4.97;;;2.45;;
84334;SDS011;74512;51.190;3.198;2023-12-14T09:36:38;9.43;;;3.47;;
84334;SDS011;74512;51.190;3.198;2023-12-14T09:39:04;8.55;;;2.60;;
84334;SDS011;74512;51.190;3.198;2023-12-14T09:41:30;8.18;;;2.45;;
84334;SDS011;74512;51.190;3.198;2023-12-14T09:43:56;8.48;;;1.80;;
84334;SDS011;74512;51.190;3.198;2023-12-14T09:46:24;8.70;;;1.75;;
84334;SDS011;74512;51.190;3.198;2023-12-14T09:48:52;5.75;;;1.48;;
84334;SDS011;74512;51.190;3.198;2023-12-14T09:51:19;7.63;;;2.03;;
84334;SDS011;74512;51.190;3.198;2023-12-14T09:53:45;6.60;;;1.33;;
84334;SDS011;74512;51.190;3.198;2023-12-14T09:56:11;4.70;;;1.63;;
84334;SDS011;74512;51.190;3.198;2023-12-14T09:58:37;6.93;;;1.75;;
84334;SDS011;74512;51.190;3.198;2023-12-14T10:01:02;5.80;;;2.00;;
84334;SDS011;74512;51.190;3.198;2023-12-14T10:03:45;5.75;;;1.55;;
84334;SDS011;74512;51.190;3.198;2023-12-14T10:06:11;7.38;;;1.80;;
84334;SDS011;74512;51.190;3.198;2023-12-14T10:08:37;6.10;;;1.30;;
84334;SDS011;74512;51.190;3.198;2023-12-14T10:11:05;5.53;;;1.50;;
84334;SDS011;74512;51.190;3.198;2023-12-14T10:13:40;5.38;;;1.10;;
84334;SDS011;74512;51.190;3.198;2023-12-14T10:16:07;6.05;;;1.98;;
84334;SDS011;74512;51.190;3.198;2023-12-14T10:18:32;5.32;;;1.25;;
84334;SDS011;74512;51.190;3.198;2023-12-14T10:21:01;5.07;;;1.40;;
84334;SDS011;74512;51.190;3.198;2023-12-14T10:23:27;4.55;;;0.85;;
84334;SDS011;74512;51.190;3.198;2023-12-14T10:25:53;4.82;;;1.50;;
84334;SDS011;74512;51.190;3.198;2023-12-14T10:28:18;3.97;;;1.63;;
84334;SDS011;74512;51.190;3.198;2023-12-14T10:30:44;5.47;;;1.73;;
84334;SDS011;74512;51.190;3.198;2023-12-14T10:33:10;7.00;;;1.33;;
84334;SDS011;74512;51.190;3.198;2023-12-14T10:35:36;2.63;;;1.30;;
84334;SDS011;74512;51.190;3.198;2023-12-14T10:38:02;7.13;;;1.52;;
84334;SDS011;74512;51.190;3.198;2023-12-14T10:40:29;2.67;;;0.80;;
84334;SDS011;74512;51.190;3.198;2023-12-14T10:42:58;6.57;;;1.20;;
84334;SDS011;74512;51.190;3.198;2023-12-14T10:45:31;5.55;;;1.38;;
84334;SDS011;74512;51.190;3.198;2023-12-14T10:47:58;8.05;;;1.10;;
84334;SDS011;74512;51.190;3.198;2023-12-14T10:50:25;5.20;;;1.20;;
84334;SDS011;74512;51.190;3.198;2023-12-14T10:52:55;5.63;;;1.00;;
84334;SDS011;74512;51.190;3.198;2023-12-14T10:55:30;5.85;;;1.70;;
84334;SDS011;74512;51.190;3.198;2023-12-14T10:58:03;5.18;;;1.42;;
84334;SDS011;74512;51.190;3.198;2023-12-14T11:00:30;3.03;;;1.40;;
84334;SDS011;74512;51.190;3.198;2023-12-14T11:02:58;9.60;;;1.20;;
84334;SDS011;74512;51.190;3.198;2023-12-14T11:05:26;4.93;;;1.02;;
84334;SDS011;74512;51.190;3.198;2023-12-14T11:07:56;7.80;;;1.13;;
84334;SDS011;74512;51.190;3.198;2023-12-14T11:10:28;4.97;;;1.02;;
84334;SDS011;74512;51.190;3.198;2023-12-14T11:13:09;1.75;;;1.15;;
84334;SDS011;74512;51.190;3.198;2023-12-14T11:15:36;3.63;;;0.88;;
84334;SDS011;74512;51.190;3.198;2023-12-14T11:23:16;3.30;;;0.98;;
84334;SDS011;74512;51.190;3.198;2023-12-14T11:25:44;3.85;;;1.23;;
84334;SDS011;74512;51.190;3.198;2023-12-14T11:28:13;3.45;;;1.20;;
84334;SDS011;74512;51.190;3.198;2023-12-14T11:30:39;1.35;;;0.88;;
84334;SDS011;74512;51.190;3.198;2023-12-14T11:33:05;1.40;;;0.85;;
84334;SDS011;74512;51.190;3.198;2023-12-14T11:35:31;4.60;;;1.20;;
84334;SDS011;74512;51.190;3.198;2023-12-14T11:37:56;2.45;;;1.17;;
84334;SDS011;74512;51.190;3.198;2023-12-14T11:40:24;4.13;;;1.05;;
84334;SDS011;74512;51.190;3.198;2023-12-14T11:43:00;5.15;;;1.27;;
84334;SDS011;74512;51.190;3.198;2023-12-14T11:45:31;5.80;;;1.10;;
84334;SDS011;74512;51.190;3.198;2023-12-14T11:47:57;4.15;;;1.00;;
84334;SDS011;74512;51.190;3.198;2023-12-14T11:50:23;5.30;;;1.10;;
84334;SDS011;74512;51.190;3.198;2023-12-14T11:52:49;5.30;;;1.00;;
84334;SDS011;74512;51.190;3.198;2023-12-14T11:55:14;3.08;;;1.13;;
84334;SDS011;74512;51.190;3.198;2023-12-14T11:57:49;1.38;;;0.65;;
84334;SDS011;74512;51.190;3.198;2023-12-14T12:00:15;3.10;;;1.10;;
84334;SDS011;74512;51.190;3.198;2023-12-14T12:02:42;2.88;;;0.93;;
84334;SDS011;74512;51.190;3.198;2023-12-14T12:05:07;9.18;;;1.35;;
84334;SDS011;74512;51.190;3.198;2023-12-14T12:07:38;3.47;;;1.50;;
84334;SDS011;74512;51.190;3.198;2023-12-14T12:10:04;9.93;;;1.30;;
84334;SDS011;74512;51.190;3.198;2023-12-14T12:12:32;6.22;;;1.10;;
84334;SDS011;74512;51.190;3.198;2023-12-14T12:14:59;3.05;;;1.00;;
84334;SDS011;74512;51.190;3.198;2023-12-14T12:17:24;1.92;;;1.00;;
84334;SDS011;74512;51.190;3.198;2023-12-14T12:19:51;2.40;;;1.50;;
84334;SDS011;74512;51.190;3.198;2023-12-14T12:22:16;10.82;;;2.10;;
84334;SDS011;74512;51.190;3.198;2023-12-14T12:24:42;4.43;;;1.15;;
84334;SDS011;74512;51.190;3.198;2023-12-14T12:27:08;3.40;;;1.00;;
84334;SDS011;74512;51.190;3.198;2023-12-14T12:29:34;3.15;;;1.30;;
84334;SDS011;74512;51.190;3.198;2023-12-14T12:32:00;3.53;;;1.05;;
84334;SDS011;74512;51.190;3.198;2023-12-14T12:34:25;5.03;;;1.02;;
84334;SDS011;74512;51.190;3.198;2023-12-14T12:36:51;3.25;;;1.27;;
84334;SDS011;74512;51.190;3.198;2023-12-14T12:39:17;4.10;;;1.10;;
84334;SDS011;74512;51.190;3.198;2023-12-14T12:41:42;7.95;;;1.40;;
84334;SDS011;74512;51.190;3.198;2023-12-14T12:44:08;1.48;;;0.70;;
84334;SDS011;74512;51.190;3.198;2023-12-14T12:46:34;6.05;;;1.10;;
84334;SDS011;74512;51.190;3.198;2023-12-14T12:49:01;6.63;;;1.33;;
84334;SDS011;74512;51.190;3.198;2023-12-14T12:51:27;1.95;;;0.80;;
84334;SDS011;74512;51.190;3.198;2023-12-14T12:53:54;3.10;;;0.95;;
84334;SDS011;74512;51.190;3.198;2023-12-14T12:56:20;3.67;;;1.00;;
84334;SDS011;74512;51.190;3.198;2023-12-14T12:58:46;2.13;;;1.10;;
84334;SDS011;74512;51.190;3.198;2023-12-14T13:01:13;3.63;;;1.10;;
84334;SDS011;74512;51.190;3.198;2023-12-14T13:03:39;4.22;;;1.00;;
84334;SDS011;74512;51.190;3.198;2023-12-14T13:06:05;6.32;;;1.42;;
84334;SDS011;74512;51.190;3.198;2023-12-14T13:08:31;2.97;;;1.40;;
84334;SDS011;74512;51.190;3.198;2023-12-14T13:10:56;5.70;;;1.20;;
84334;SDS011;74512;51.190;3.198;2023-12-14T13:13:22;7.22;;;1.15;;
84334;SDS011;74512;51.190;3.198;2023-12-14T13:15:48;5.03;;;1.15;;
84334;SDS011;74512;51.190;3.198;2023-12-14T13:18:13;3.42;;;0.85;;
84334;SDS011;74512;51.190;3.198;2023-12-14T13:20:41;4.13;;;0.88;;
84334;SDS011;74512;51.190;3.198;2023-12-14T13:23:07;4.30;;;1.08;;
84334;SDS011;74512;51.190;3.198;2023-12-14T13:25:33;4.55;;;1.15;;
84334;SDS011;74512;51.190;3.198;2023-12-14T13:28:00;5.65;;;0.98;;
84334;SDS011;74512;51.190;3.198;2023-12-14T13:30:25;3.10;;;0.77;;
84334;SDS011;74512;51.190;3.198;2023-12-14T13:32:51;4.60;;;1.17;;
84334;SDS011;74512;51.190;3.198;2023-12-14T13:35:19;5.93;;;1.20;;
84334;SDS011;74512;51.190;3.198;2023-12-14T13:37:44;5.13;;;1.10;;
84334;SDS011;74512;51.190;3.198;2023-12-14T13:40:11;1.55;;;0.90;;
84334;SDS011;74512;51.190;3.198;2023-12-14T13:42:38;9.23;;;1.33;;
84334;SDS011;74512;51.190;3.198;2023-12-14T13:45:04;4.35;;;0.95;;
84334;SDS011;74512;51.190;3.198;2023-12-14T13:47:30;6.03;;;1.10;;
84334;SDS011;74512;51.190;3.198;2023-12-14T13:49:55;3.47;;;0.93;;
84334;SDS011;74512;51.190;3.198;2023-12-14T13:52:21;5.53;;;1.55;;
84334;SDS011;74512;51.190;3.198;2023-12-14T13:54:47;2.30;;;0.88;;
84334;SDS011;74512;51.190;3.198;2023-12-14T13:57:12;4.43;;;1.00;;
84334;SDS011;74512;51.190;3.198;2023-12-14T13:59:38;6.57;;;1.25;;
84334;SDS011;74512;51.190;3.198;2023-12-14T14:02:04;2.55;;;0.88;;
84334;SDS011;74512;51.190;3.198;2023-12-14T14:04:29;5.20;;;1.00;;
84334;SDS011;74512;51.190;3.198;2023-12-14T14:06:55;5.10;;;0.80;;
84334;SDS011;74512;51.190;3.198;2023-12-14T14:09:21;4.68;;;0.90;;
84334;SDS011;74512;51.190;3.198;2023-12-14T14:11:47;4.20;;;0.90;;
84334;SDS011;74512;51.190;3.198;2023-12-14T14:14:15;4.65;;;1.10;;
84334;SDS011;74512;51.190;3.198;2023-12-14T14:16:41;2.70;;;1.00;;
84334;SDS011;74512;51.190;3.198;2023-12-14T14:19:06;4.80;;;1.10;;
84334;SDS011;74512;51.190;3.198;2023-12-14T14:21:32;7.00;;;1.30;;
84334;SDS011;74512;51.190;3.198;2023-12-14T14:23:58;3.88;;;1.20;;
84334;SDS011;74512;51.190;3.198;2023-12-14T14:26:23;3.30;;;0.93;;
84334;SDS011;74512;51.190;3.198;2023-12-14T14:28:49;3.92;;;1.13;;
84334;SDS011;74512;51.190;3.198;2023-12-14T14:31:15;1.88;;;1.10;;
84334;SDS011;74512;51.190;3.198;2023-12-14T14:33:40;8.63;;;1.25;;
84334;SDS011;74512;51.190;3.198;2023-12-14T14:36:06;5.80;;;1.00;;
84334;SDS011;74512;51.190;3.198;2023-12-14T14:38:33;3.97;;;1.00;;
84334;SDS011;74512;51.190;3.198;2023-12-14T14:40:59;3.38;;;1.20;;
84334;SDS011;74512;51.190;3.198;2023-12-14T14:43:24;2.97;;;1.15;;
84334;SDS011;74512;51.190;3.198;2023-12-14T14:45:50;3.03;;;1.15;;
84334;SDS011;74512;51.190;3.198;2023-12-14T14:48:16;3.70;;;1.15;;